createdAt,value
2019-03-20T00:03:44.791Z,17.00
2019-03-20T00:13:49.876Z,16.33
2019-03-20T00:23:54.639Z,15.87
2019-03-20T00:33:59.562Z,14.33
2019-03-20T00:44:04.805Z,14.33
2019-03-20T00:54:09.778Z,14.40
2019-03-20T01:04:14.646Z,14.77
2019-03-20T01:14:20.271Z,13.93
2019-03-20T01:24:25.388Z,14.70
2019-03-20T01:34:30.177Z,14.53
2019-03-20T01:44:35.342Z,15.00
2019-03-20T01:54:41.001Z,15.23
2019-03-20T02:04:46.695Z,14.90
2019-03-20T02:14:51.788Z,15.57
2019-03-20T02:24:57.194Z,15.33
2019-03-20T02:35:02.308Z,15.97
2019-03-20T02:45:08.309Z,15.00
2019-03-20T02:55:13.678Z,15.43
2019-03-20T03:05:18.811Z,15.40
2019-03-20T03:15:23.754Z,16.20
2019-03-20T03:25:28.835Z,15.80
2019-03-20T03:35:33.798Z,16.50
2019-03-20T03:45:38.543Z,15.67
2019-03-20T03:55:43.541Z,14.70
2019-03-20T04:05:49.629Z,15.53
2019-03-20T04:15:54.708Z,15.93
2019-03-20T04:25:59.584Z,16.30
2019-03-20T04:36:04.282Z,16.37
2019-03-20T04:46:09.510Z,16.60
2019-03-20T04:56:14.502Z,16.60
2019-03-20T05:06:20.358Z,15.50
2019-03-20T05:16:25.423Z,14.20
2019-03-20T05:26:30.554Z,14.57
2019-03-20T05:36:35.363Z,15.33
2019-03-20T05:46:40.200Z,14.43
2019-03-20T05:56:45.524Z,14.80
2019-03-20T06:06:50.995Z,15.10
2019-03-20T06:16:56.161Z,15.63
2019-03-20T06:27:01.055Z,14.30
2019-03-20T06:37:05.862Z,13.03
2019-03-20T06:47:10.788Z,15.13
2019-03-20T06:57:15.914Z,14.50
2019-03-20T07:07:23.149Z,13.80
2019-03-20T07:17:28.071Z,13.43
2019-03-20T07:27:34.178Z,12.87
2019-03-20T07:37:39.045Z,11.90
2019-03-20T07:47:44.091Z,11.30
2019-03-20T07:57:49.925Z,10.67
2019-03-20T08:07:54.899Z,8.00
2019-03-20T08:18:00.041Z,7.20
2019-03-20T08:28:05.083Z,5.00
2019-03-20T08:38:17.701Z,3.70
2019-03-20T08:48:16.567Z,5.23
2019-03-20T08:58:22.516Z,6.33
2019-03-20T09:08:29.582Z,6.13
2019-03-20T09:18:33.910Z,6.00
2019-03-20T09:28:38.904Z,6.07
2019-03-20T09:38:44.018Z,6.47
2019-03-20T09:48:50.247Z,6.13
2019-03-20T09:58:55.232Z,5.90
2019-03-20T10:09:01.881Z,5.90
2019-03-20T10:19:08.221Z,6.13
2019-03-20T10:29:13.234Z,7.87
2019-03-20T10:39:18.046Z,6.30
2019-03-20T10:49:23.060Z,4.80
2019-03-20T10:59:27.983Z,4.73
2019-03-20T11:09:33.115Z,4.43
2019-03-20T11:19:37.858Z,4.70
2019-03-20T11:29:42.602Z,4.10
2019-03-20T11:39:47.569Z,4.23
2019-03-20T11:49:52.270Z,3.70
2019-03-20T11:59:57.085Z,4.20
2019-03-20T12:10:02.106Z,4.70
2019-03-20T12:20:13.393Z,5.53
2019-03-20T12:30:19.297Z,5.97
2019-03-20T12:40:24.818Z,6.10
2019-03-20T12:50:30.947Z,5.53
2019-03-20T13:00:35.955Z,5.57
2019-03-20T13:10:40.893Z,5.87
2019-03-20T13:20:45.800Z,5.67
2019-03-20T13:30:53.272Z,6.03
2019-03-20T13:40:59.151Z,5.60
2019-03-20T13:51:04.253Z,5.30
2019-03-20T14:01:08.831Z,4.93
2019-03-20T14:11:14.103Z,5.40
2019-03-20T14:21:19.700Z,5.63
2019-03-20T14:31:26.148Z,4.90
2019-03-20T14:41:31.274Z,5.83
2019-03-20T14:51:36.476Z,5.63
2019-03-20T15:01:41.432Z,6.63
2019-03-20T15:11:46.375Z,6.23
2019-03-20T15:21:51.096Z,6.80
2019-03-20T15:31:55.988Z,6.03
2019-03-20T15:42:00.854Z,6.53
2019-03-20T15:52:05.774Z,7.63
2019-03-20T16:02:10.712Z,7.70
2019-03-20T16:12:15.556Z,7.87
2019-03-20T16:22:21.361Z,8.10
2019-03-20T16:32:26.467Z,8.50
2019-03-20T16:42:31.934Z,8.70
2019-03-20T16:52:37.126Z,9.77
2019-03-20T17:02:42.930Z,9.90
2019-03-20T17:12:48.064Z,11.47
2019-03-20T17:22:52.897Z,9.90
2019-03-20T17:32:58.400Z,11.80
2019-03-20T17:43:03.176Z,11.57
2019-03-20T17:53:09.120Z,11.80
2019-03-20T18:03:14.236Z,11.20
2019-03-20T18:13:19.045Z,10.63
2019-03-20T18:23:25.449Z,31.47
2019-03-20T18:33:30.459Z,10.73
2019-03-20T18:43:36.637Z,15.17
2019-03-20T18:53:41.702Z,11.60
2019-03-20T19:03:57.507Z,9.93
2019-03-20T19:14:02.866Z,11.03
2019-03-20T19:24:08.074Z,11.70
2019-03-20T19:34:13.161Z,11.77
2019-03-20T19:44:18.576Z,19.10
2019-03-20T19:54:24.255Z,16.90
2019-03-20T20:04:29.821Z,13.80
2019-03-20T20:14:34.844Z,12.53
2019-03-20T20:24:42.465Z,14.90
2019-03-20T20:34:47.417Z,14.33
2019-03-20T20:44:52.420Z,13.53
2019-03-20T20:54:57.199Z,12.50
2019-03-20T21:05:02.057Z,12.20
2019-03-20T21:15:07.233Z,11.47
2019-03-20T21:25:12.558Z,9.13
2019-03-20T21:35:36.442Z,14.07
2019-03-20T21:45:55.160Z,9.67
2019-03-20T21:56:18.501Z,9.93
2019-03-20T22:06:41.433Z,13.23
2019-03-20T22:17:23.738Z,10.10
2019-03-20T22:27:35.522Z,10.73
2019-03-20T22:37:40.764Z,11.40
2019-03-20T22:47:59.816Z,10.83
2019-03-20T22:58:19.600Z,9.63
2019-03-20T23:08:25.374Z,8.77
2019-03-20T23:18:30.576Z,10.27
2019-03-20T23:28:36.444Z,9.83
2019-03-20T23:38:41.994Z,11.93
2019-03-20T23:48:50.044Z,10.03
2019-03-20T23:58:55.273Z,8.90
